createdAt,value
2019-05-25T00:01:57.662Z,6.07
2019-05-25T00:04:35.509Z,6.93
2019-05-25T00:07:04.505Z,6.67
2019-05-25T00:09:34.921Z,6.40
2019-05-25T00:12:04.059Z,6.63
2019-05-25T00:14:42.096Z,6.90
2019-05-25T00:17:13.833Z,7.13
2019-05-25T00:19:42.747Z,7.37
2019-05-25T00:22:11.614Z,8.20
2019-05-25T00:24:49.301Z,8.30
2019-05-25T00:27:18.395Z,7.60
2019-05-25T00:29:47.339Z,8.00
2019-05-25T00:32:17.255Z,7.93
2019-05-25T00:34:55.013Z,8.03
2019-05-25T00:37:24.038Z,8.43
2019-05-25T00:39:52.917Z,7.90
2019-05-25T00:42:21.937Z,7.90
2019-05-25T00:45:00.350Z,8.17
2019-05-25T00:47:29.295Z,7.80
2019-05-25T00:49:58.423Z,8.03
2019-05-25T00:52:29.127Z,8.00
2019-05-25T00:57:42.006Z,8.17
2019-05-25T01:00:12.703Z,8.13
2019-05-25T01:02:42.354Z,7.53
2019-05-25T01:05:20.527Z,8.50
2019-05-25T01:07:49.904Z,9.53
2019-05-25T01:10:19.176Z,8.30
2019-05-25T02:38:48.956Z,11.00
2019-05-25T02:41:20.711Z,11.57
2019-05-25T02:46:27.323Z,11.23
2019-05-25T02:48:56.981Z,10.40
2019-05-25T02:51:25.953Z,11.20
2019-05-25T02:59:12.870Z,10.47
2019-05-25T03:01:44.650Z,10.57
2019-05-25T03:04:14.536Z,11.27
2019-05-25T03:09:33.059Z,10.07
2019-05-25T03:14:37.224Z,11.27
2019-05-25T03:19:51.028Z,11.83
2019-05-25T03:22:19.935Z,11.77
2019-05-25T03:24:50.769Z,12.67
2019-05-25T03:27:28.960Z,11.20
2019-05-25T03:48:10.854Z,11.13
2019-05-25T03:58:39.570Z,11.57
2019-05-25T06:26:27.408Z,9.33
2019-05-25T06:28:56.977Z,8.80
2019-05-25T06:31:26.220Z,8.90
2019-05-25T06:33:55.286Z,7.97
2019-05-25T06:36:24.368Z,8.33
2019-05-25T06:38:53.529Z,8.27
2019-05-25T06:41:22.783Z,7.53
2019-05-25T06:44:05.295Z,8.03
2019-05-25T06:46:34.717Z,7.77
2019-05-25T06:49:04.043Z,7.70
2019-05-25T06:51:33.323Z,8.17
2019-05-25T06:54:11.373Z,7.20
2019-05-25T06:56:40.809Z,8.17
2019-05-25T06:59:09.976Z,7.90
2019-05-25T07:01:39.774Z,7.20
2019-05-25T07:04:18.022Z,7.30
2019-05-25T07:06:47.988Z,7.53
2019-05-25T07:09:19.869Z,7.70
2019-05-25T07:11:48.928Z,7.67
2019-05-25T07:14:27.241Z,7.67
2019-05-25T07:16:56.443Z,6.97
2019-05-25T07:19:30.913Z,6.67
2019-05-25T07:22:00.330Z,6.60
2019-05-25T07:27:16.346Z,6.37
2019-05-25T07:32:20.978Z,6.23
2019-05-25T07:37:34.374Z,5.07
2019-05-25T07:40:04.730Z,5.87
2019-05-25T07:42:33.886Z,5.30
2019-05-25T07:45:12.326Z,4.50
2019-05-25T07:47:41.322Z,5.20
2019-05-25T07:50:15.310Z,4.70
2019-05-25T07:52:44.946Z,4.80
2019-05-25T07:55:35.638Z,4.90
2019-05-25T07:58:16.576Z,6.33
2019-05-25T08:00:36.130Z,6.17
2019-05-25T08:03:05.627Z,6.37
2019-05-25T08:05:44.336Z,7.00
2019-05-25T08:08:13.414Z,7.03
2019-05-25T08:10:42.385Z,6.27
2019-05-25T08:18:22.405Z,7.12
2019-05-25T08:20:51.560Z,6.55
2019-05-25T08:23:20.638Z,6.35
2019-05-25T08:25:49.667Z,6.58
2019-05-25T08:30:54.528Z,5.90
2019-05-25T08:36:06.882Z,5.95
2019-05-25T08:38:36.064Z,6.15
2019-05-25T08:41:05.514Z,5.62
2019-05-25T08:46:18.626Z,5.80
2019-05-25T08:48:47.889Z,5.70
2019-05-25T08:51:19.068Z,5.90
2019-05-25T08:53:57.119Z,5.60
2019-05-25T08:56:26.137Z,6.12
2019-05-25T08:58:55.732Z,5.87
2019-05-25T09:01:24.826Z,5.50
2019-05-25T09:04:02.961Z,5.17
2019-05-25T09:06:33.735Z,5.05
2019-05-25T09:09:03.129Z,5.28
2019-05-25T09:11:34.593Z,4.60
2019-05-25T09:14:12.283Z,5.05
2019-05-25T09:16:41.453Z,4.87
2019-05-25T09:19:10.906Z,5.30
2019-05-25T09:21:40.222Z,4.70
2019-05-25T09:24:19.052Z,4.03
2019-05-25T09:26:48.110Z,3.70
2019-05-25T09:29:20.810Z,4.22
2019-05-25T09:31:49.980Z,4.20
2019-05-25T09:34:27.953Z,3.80
2019-05-25T09:37:35.882Z,4.90
2019-05-25T09:40:06.061Z,3.90
2019-05-25T09:42:35.443Z,4.12
2019-05-25T09:45:14.788Z,4.50
2019-05-25T09:47:44.370Z,3.72
2019-05-25T09:50:13.596Z,4.40
2019-05-25T09:52:42.611Z,5.00
2019-05-25T09:55:20.685Z,4.55
2019-05-25T09:57:49.732Z,5.80
2019-05-25T10:00:19.099Z,5.37
2019-05-25T10:02:48.433Z,4.72
2019-05-25T10:05:26.620Z,5.25
2019-05-25T10:07:58.468Z,4.55
2019-05-25T10:10:27.759Z,4.70
2019-05-25T10:12:56.718Z,5.45
2019-05-25T10:15:34.743Z,4.97
2019-05-25T10:18:03.710Z,5.83
2019-05-25T10:20:32.913Z,5.17
2019-05-25T10:23:03.962Z,4.22
2019-05-25T10:25:41.911Z,6.45
2019-05-25T10:28:10.835Z,5.30
2019-05-25T10:33:24.793Z,3.80
2019-05-25T10:38:39.791Z,4.40
2019-05-25T10:41:08.951Z,5.05
2019-05-25T10:43:38.202Z,4.87
2019-05-25T10:48:54.123Z,5.33
2019-05-25T10:51:26.487Z,5.35
2019-05-25T10:53:56.462Z,4.70
2019-05-25T10:56:34.608Z,4.78
2019-05-25T11:01:40.189Z,4.45
2019-05-25T11:04:09.976Z,4.53
2019-05-25T11:06:48.085Z,5.22
2019-05-25T11:09:26.585Z,4.97
2019-05-25T11:11:55.647Z,4.62
2019-05-25T11:19:43.996Z,4.50
2019-05-25T11:22:13.143Z,3.40
2019-05-25T11:24:42.122Z,2.87
2019-05-25T11:30:07.841Z,2.70
2019-05-25T11:32:26.213Z,2.50
2019-05-25T11:37:41.753Z,2.08
2019-05-25T11:40:12.609Z,2.10
2019-05-25T11:42:42.015Z,2.30
2019-05-25T11:47:54.805Z,2.20
2019-05-25T11:50:26.988Z,2.10
2019-05-25T11:52:55.877Z,2.15
2019-05-25T11:55:34.254Z,2.45
2019-05-25T11:58:03.154Z,2.80
2019-05-25T12:00:34.767Z,2.00
2019-05-25T12:03:04.042Z,2.20
2019-05-25T12:05:42.282Z,1.95
2019-05-25T12:10:47.489Z,2.02
2019-05-25T12:13:16.604Z,2.80
2019-05-25T12:15:54.974Z,2.58
2019-05-25T12:18:27.092Z,2.70
2019-05-25T12:20:56.973Z,2.20
2019-05-25T12:23:26.830Z,2.20
2019-05-25T12:26:04.961Z,2.30
2019-05-25T12:28:53.055Z,2.30
2019-05-25T12:31:25.074Z,2.58
2019-05-25T12:33:53.967Z,2.80
2019-05-25T12:36:31.984Z,2.65
2019-05-25T12:39:00.926Z,2.83
2019-05-25T12:41:30.018Z,2.60
2019-05-25T12:43:59.100Z,3.15
2019-05-25T12:46:38.785Z,2.85
2019-05-25T12:49:07.880Z,2.70
2019-05-25T12:51:36.782Z,2.62
2019-05-25T12:54:05.984Z,2.42
2019-05-25T12:56:44.185Z,2.65
2019-05-25T12:59:13.225Z,3.00
2019-05-25T13:01:42.493Z,3.00
2019-05-25T13:04:11.361Z,3.00
2019-05-25T13:06:49.163Z,2.77
2019-05-25T13:09:18.091Z,2.60
2019-05-25T13:11:47.254Z,3.37
2019-05-25T13:14:16.353Z,2.92
2019-05-25T13:16:54.772Z,2.77
2019-05-25T13:19:23.747Z,3.20
2019-05-25T13:21:52.882Z,3.10
2019-05-25T13:24:22.261Z,3.05
2019-05-25T13:27:00.457Z,2.75
2019-05-25T13:29:29.675Z,2.50
2019-05-25T13:31:58.814Z,2.27
2019-05-25T13:34:27.862Z,2.35
2019-05-25T13:37:18.008Z,2.27
2019-05-25T13:39:47.496Z,2.75
2019-05-25T13:42:16.881Z,2.65
2019-05-25T13:44:45.860Z,2.20
2019-05-25T13:47:24.524Z,2.98
2019-05-25T13:49:54.025Z,3.05
2019-05-25T13:52:25.839Z,2.40
2019-05-25T13:54:54.800Z,3.17
2019-05-25T13:57:33.006Z,2.72
2019-05-25T14:00:04.845Z,3.12
2019-05-25T14:02:34.233Z,2.92
2019-05-25T14:05:03.820Z,2.80
2019-05-25T14:07:42.261Z,3.05
2019-05-25T14:10:11.668Z,2.95
2019-05-25T14:12:40.569Z,2.72
2019-05-25T14:20:31.326Z,2.55
2019-05-25T14:23:00.377Z,2.55
2019-05-25T14:25:29.301Z,3.05
2019-05-25T14:28:07.189Z,3.17
2019-05-25T14:30:36.183Z,3.12
2019-05-25T14:33:10.613Z,2.98
2019-05-25T14:35:42.125Z,2.70
2019-05-25T14:38:19.981Z,2.90
2019-05-25T14:40:49.122Z,3.12
2019-05-25T14:43:18.442Z,3.10
2019-05-25T14:45:53.377Z,3.30
2019-05-25T14:48:32.891Z,3.30
2019-05-25T14:51:02.405Z,3.42
2019-05-25T14:53:31.535Z,2.87
2019-05-25T14:56:00.712Z,2.80
2019-05-25T14:58:29.945Z,3.25
2019-05-25T15:01:00.868Z,2.90
2019-05-25T15:06:04.555Z,3.30
2019-05-25T15:11:20.240Z,2.87
2019-05-25T15:13:49.169Z,3.13
2019-05-25T15:16:18.011Z,3.57
2019-05-25T15:21:31.775Z,3.83
2019-05-25T15:24:01.189Z,4.27
2019-05-25T15:26:30.166Z,3.33
2019-05-25T15:29:11.368Z,5.57
2019-05-25T15:31:39.086Z,3.50
2019-05-25T15:34:08.004Z,3.40
2019-05-25T15:36:37.137Z,2.27
2019-05-25T15:39:15.329Z,3.00
2019-05-25T15:41:44.279Z,3.10
2019-05-25T15:44:13.229Z,3.13
2019-05-25T15:46:59.302Z,3.00
2019-05-25T15:52:20.690Z,3.07
2019-05-25T16:00:39.667Z,6.83
2019-05-25T16:03:06.667Z,5.73
2019-05-25T16:05:36.044Z,11.17
2019-05-25T16:08:05.084Z,7.37
2019-05-25T16:13:18.391Z,5.27
2019-05-25T16:15:48.026Z,5.20
2019-05-25T16:18:32.312Z,4.83
2019-05-25T16:23:36.182Z,5.30
2019-05-25T16:26:05.064Z,5.37
2019-05-25T16:28:42.956Z,5.53
2019-05-25T16:31:11.949Z,4.70
2019-05-25T16:33:41.108Z,4.73
2019-05-25T16:36:10.135Z,4.73
2019-05-25T16:38:48.160Z,4.90
2019-05-25T16:41:17.150Z,4.80
2019-05-25T16:43:46.328Z,4.80
2019-05-25T16:46:15.746Z,4.53
2019-05-25T16:48:53.505Z,4.60
2019-05-25T16:51:23.135Z,4.63
2019-05-25T16:53:52.529Z,4.23
2019-05-25T16:56:22.807Z,3.93
2019-05-25T16:59:01.161Z,4.17
2019-05-25T17:01:46.972Z,5.77
2019-05-25T17:04:00.840Z,7.33
2019-05-25T17:06:29.875Z,5.63
2019-05-25T17:09:11.205Z,6.73
2019-05-25T17:11:44.850Z,5.43
2019-05-25T17:14:13.713Z,4.70
2019-05-25T17:16:42.612Z,3.50
2019-05-25T17:19:20.646Z,7.03
2019-05-25T17:21:49.519Z,7.80
2019-05-25T17:24:18.420Z,4.30
2019-05-25T17:26:49.565Z,4.70
2019-05-25T17:29:27.692Z,7.60
2019-05-25T17:31:58.165Z,3.97
2019-05-25T17:34:27.173Z,3.43
2019-05-25T17:36:57.081Z,4.00
2019-05-25T17:39:35.701Z,3.30
2019-05-25T17:42:05.604Z,3.27
2019-05-25T17:44:34.813Z,3.20
2019-05-25T17:47:05.013Z,3.20
2019-05-25T17:49:46.124Z,3.20
2019-05-25T17:52:22.697Z,3.30
2019-05-25T17:54:50.450Z,3.20
2019-05-25T17:57:21.112Z,3.00
2019-05-25T18:02:37.077Z,3.40
2019-05-25T18:05:08.461Z,3.33
2019-05-25T18:07:38.886Z,3.30
2019-05-25T18:10:17.050Z,3.50
2019-05-25T18:12:50.332Z,3.47
2019-05-25T18:15:21.975Z,3.33
2019-05-25T18:17:53.953Z,3.13
2019-05-25T18:20:31.988Z,3.00
2019-05-25T18:23:05.037Z,3.60
2019-05-25T18:25:34.139Z,3.20
2019-05-25T18:28:07.875Z,3.13
2019-05-25T18:30:46.333Z,3.07
2019-05-25T18:33:18.059Z,3.90
2019-05-25T18:35:47.262Z,3.00
2019-05-25T18:38:20.289Z,3.90
2019-05-25T18:43:28.189Z,3.53
2019-05-25T18:45:58.226Z,3.50
2019-05-25T19:32:42.678Z,5.30
2019-05-25T19:35:11.932Z,5.53
2019-05-25T19:37:42.474Z,5.80
2019-05-25T19:40:21.428Z,5.47
2019-05-25T19:42:50.955Z,5.93
2019-05-25T19:45:20.101Z,5.60
2019-05-25T19:47:58.077Z,5.77
2019-05-25T19:50:27.158Z,6.40
2019-05-25T19:52:56.281Z,5.47
2019-05-25T19:55:27.492Z,5.87
2019-05-25T19:57:56.343Z,5.50
2019-05-25T20:00:25.869Z,5.80
2019-05-25T20:02:55.755Z,5.77
2019-05-25T20:10:55.875Z,5.57
2019-05-25T20:13:33.974Z,5.50
2019-05-25T20:16:03.254Z,5.53
2019-05-25T20:18:32.414Z,5.63
2019-05-25T20:21:11.083Z,6.50
2019-05-25T20:23:39.993Z,4.83
2019-05-25T20:26:10.830Z,5.40
2019-05-25T20:28:40.340Z,4.97
2019-05-25T20:31:18.805Z,5.27
2019-05-25T20:33:47.700Z,5.13
